Hlavní strana
METAR-TAF:

METAR-TAF

Letiště :

Winchester, Tennessee, Spojené státy americké

zeměpisná šířka: 35-10-39N, zeměpisná délka: 086-03-58W, výška: 298 m

Aktuální stav počasí

Zpráva byla vytvořena před 32 minutami, v 19:15 UTC
Jihojihovýchodní vítr 8 kt
Teplota 14°C
Vlhkost vzduchu 100%
Tlak 1017 hPa
Viditelnost: 4.8 km
Polojasno ve výšce 800 ft
Oblačno až skoro zataženo ve výšce 3300 ft
Zataženo ve výšce 5500 ft
kouřmo

METAR: KBGF 181915Z AUTO 16008KT 3SM BR SCT008 BKN033 OVC055 14/14 A3002 RMK A01

Čas: 13:47 (19:47 UTC)


TAF: chybějící

Stav a předpovědi počasí z více než 4 000 letišť (zprávy METAR a TAF).

Červené a žluté tečky na mapě představují dostupné meteorologické stanice.

Když kurzor umístíte na tečku, zobrazí se název stanice.

Pak kliknutím zobrazíte stav a předpověď počasí.

Chcete-li změnit mapu, kliknutím na zelené tlačítko se znaménkem +mapu přiblížíte, kliknutím na zelené tlačítko se znaménkem – mapu oddálíte a kliknutím na zelené šipky přejdete na sousední mapy.


METAR-TAF: